createdAt,value
2018-04-16T00:00:07.017Z,1006.23
2018-04-16T00:01:07.000Z,1006.30
2018-04-16T00:02:07.053Z,1006.35
2018-04-16T00:03:07.033Z,1006.44
2018-04-16T00:04:07.075Z,1006.38
2018-04-16T00:05:07.051Z,1006.38
2018-04-16T00:06:07.107Z,1006.36
2018-04-16T00:07:07.063Z,1006.34
2018-04-16T00:08:07.119Z,1006.30
2018-04-16T00:09:07.091Z,1006.32
2018-04-16T00:10:07.109Z,1006.39
2018-04-16T00:11:07.173Z,1006.32
2018-04-16T00:12:07.136Z,1006.31
2018-04-16T00:13:07.144Z,1006.31
2018-04-16T00:14:07.153Z,1006.30
2018-04-16T00:15:07.166Z,1006.27
2018-04-16T00:16:07.241Z,1006.28
2018-04-16T00:17:07.185Z,1006.25
2018-04-16T00:18:07.203Z,1006.26
2018-04-16T00:19:07.230Z,1006.21
2018-04-16T00:20:07.229Z,1006.18
2018-04-16T00:21:07.260Z,1006.16
2018-04-16T00:22:07.251Z,1006.17
2018-04-16T00:23:07.256Z,1006.14
2018-04-16T00:24:07.265Z,1006.08
2018-04-16T00:25:07.268Z,1006.05
2018-04-16T00:26:07.321Z,1006.07
2018-04-16T00:27:07.289Z,1006.07
2018-04-16T00:28:07.307Z,1006.14
2018-04-16T00:29:07.312Z,1006.13
2018-04-16T00:30:07.319Z,1006.12
2018-04-16T00:31:07.389Z,1006.11
2018-04-16T00:32:07.344Z,1006.09
2018-04-16T00:33:07.367Z,1006.06
2018-04-16T00:34:07.382Z,1006.03
2018-04-16T00:35:07.392Z,1006.04
2018-04-16T00:36:07.428Z,1006.04
2018-04-16T00:37:07.403Z,1006.05
2018-04-16T00:38:07.440Z,1006.03
2018-04-16T00:39:07.442Z,1006.01
2018-04-16T00:40:07.449Z,1006.00
2018-04-16T00:41:07.459Z,1006.02
2018-04-16T00:42:07.500Z,1006.06
2018-04-16T00:43:07.466Z,1006.03
2018-04-16T00:44:07.476Z,1006.07
2018-04-16T00:45:07.500Z,1006.07
2018-04-16T00:46:07.505Z,1006.10
2018-04-16T00:47:07.577Z,1006.07
2018-04-16T00:48:07.549Z,1006.04
2018-04-16T00:49:07.547Z,1006.02
2018-04-16T00:50:07.548Z,1006.05
2018-04-16T00:51:07.557Z,1006.09
2018-04-16T00:52:07.627Z,1006.07
2018-04-16T00:53:07.599Z,1006.10
2018-04-16T00:54:07.593Z,1006.05
2018-04-16T00:55:07.615Z,1006.05
2018-04-16T00:56:07.636Z,1006.07
2018-04-16T00:57:07.702Z,1006.02
2018-04-16T00:58:07.645Z,1006.00
2018-04-16T00:59:07.658Z,1006.02
2018-04-16T01:00:07.651Z,1005.98
2018-04-16T01:01:07.687Z,1006.03
2018-04-16T01:02:07.723Z,1006.02
2018-04-16T01:03:07.697Z,1006.03
2018-04-16T01:04:07.705Z,1006.05
2018-04-16T01:05:07.715Z,1006.04
2018-04-16T01:06:07.734Z,1006.00
2018-04-16T01:07:07.784Z,1006.03
2018-04-16T01:08:07.789Z,1006.02
2018-04-16T01:09:07.766Z,1006.05
2018-04-16T01:10:07.776Z,1006.03
2018-04-16T01:11:07.778Z,1006.05
2018-04-16T01:12:07.797Z,1006.06
2018-04-16T01:13:07.845Z,1006.07
2018-04-16T01:14:07.842Z,1006.10
2018-04-16T01:15:07.817Z,1006.09
2018-04-16T01:16:07.850Z,1006.07
2018-04-16T01:17:07.842Z,1006.09
2018-04-16T01:18:07.919Z,1006.03
2018-04-16T01:19:07.881Z,1006.05
2018-04-16T01:20:07.893Z,1006.09
2018-04-16T01:21:07.899Z,1006.06
2018-04-16T01:22:07.894Z,1006.10
2018-04-16T01:23:07.962Z,1006.11
2018-04-16T01:24:07.931Z,1006.11
2018-04-16T01:25:07.949Z,1006.08
2018-04-16T01:26:07.949Z,1006.10
2018-04-16T01:27:07.976Z,1006.11
2018-04-16T01:28:08.009Z,1006.15
2018-04-16T01:29:08.055Z,1006.18
2018-04-16T01:30:07.989Z,1006.17
2018-04-16T01:31:08.000Z,1006.19
2018-04-16T01:32:08.027Z,1006.16
2018-04-16T01:33:08.028Z,1006.18
2018-04-16T01:34:08.075Z,1006.16
2018-04-16T01:35:08.057Z,1006.12
2018-04-16T01:36:08.125Z,1006.06
2018-04-16T01:37:08.071Z,1006.00
2018-04-16T01:38:08.101Z,1006.05
2018-04-16T01:39:08.095Z,1006.07
2018-04-16T01:40:08.127Z,1006.08
2018-04-16T01:41:08.112Z,1006.06
2018-04-16T01:42:08.172Z,1006.05
2018-04-16T01:43:08.132Z,1006.03
2018-04-16T01:44:08.145Z,1006.01
2018-04-16T01:45:08.185Z,1006.03
2018-04-16T01:46:08.180Z,1005.99
2018-04-16T01:47:08.251Z,1005.95
2018-04-16T01:48:08.196Z,1005.97
2018-04-16T01:49:08.207Z,1005.96
2018-04-16T01:50:08.220Z,1005.95
2018-04-16T01:51:08.249Z,1005.96
2018-04-16T01:52:08.266Z,1005.97
2018-04-16T01:53:08.254Z,1005.93
2018-04-16T01:54:08.267Z,1005.91
2018-04-16T01:55:08.320Z,1005.92
2018-04-16T01:56:08.287Z,1005.91
2018-04-16T01:57:08.284Z,1005.95
2018-04-16T01:58:08.331Z,1005.92
2018-04-16T01:59:08.308Z,1005.88
2018-04-16T02:00:08.326Z,1005.87
2018-04-16T02:01:08.376Z,1005.83
2018-04-16T02:02:08.336Z,1005.84
2018-04-16T02:03:08.363Z,1005.83
2018-04-16T02:04:08.374Z,1005.84
2018-04-16T02:05:08.379Z,1005.79
2018-04-16T02:06:08.405Z,1005.82
2018-04-16T02:07:08.403Z,1005.78
2018-04-16T02:08:08.420Z,1005.76
2018-04-16T02:09:08.458Z,1005.74
2018-04-16T02:10:08.429Z,1005.67
2018-04-16T02:11:08.460Z,1005.65
2018-04-16T02:12:08.461Z,1005.64
2018-04-16T02:13:08.467Z,1005.60
2018-04-16T02:14:08.510Z,1005.58
2018-04-16T02:15:08.488Z,1005.58
2018-04-16T02:16:08.507Z,1005.54
2018-04-16T02:17:08.500Z,1005.57
2018-04-16T02:18:08.508Z,1005.56
2018-04-16T02:19:08.577Z,1005.56
2018-04-16T02:20:08.546Z,1005.59
2018-04-16T02:21:08.545Z,1005.59
2018-04-16T02:22:08.560Z,1005.56
2018-04-16T02:23:08.573Z,1005.56
2018-04-16T02:24:08.628Z,1005.55
2018-04-16T02:25:08.597Z,1005.56
2018-04-16T02:26:08.606Z,1005.48
2018-04-16T02:27:08.617Z,1005.48
2018-04-16T02:28:08.625Z,1005.47
2018-04-16T02:29:08.660Z,1005.51
2018-04-16T02:30:08.639Z,1005.45
2018-04-16T02:31:08.666Z,1005.43
2018-04-16T02:32:08.654Z,1005.41
2018-04-16T02:33:08.688Z,1005.39
2018-04-16T02:34:08.707Z,1005.38
2018-04-16T02:35:08.767Z,1005.39
2018-04-16T02:36:08.719Z,1005.35
2018-04-16T02:37:08.715Z,1005.38
2018-04-16T02:38:08.722Z,1005.37
2018-04-16T02:39:08.738Z,1005.38
2018-04-16T02:40:08.776Z,1005.43
2018-04-16T02:41:08.763Z,1005.47
2018-04-16T02:42:08.786Z,1005.43
2018-04-16T02:43:08.786Z,1005.52
2018-04-16T02:44:08.785Z,1005.52
2018-04-16T02:45:08.831Z,1005.56
2018-04-16T02:46:08.804Z,1005.55
2018-04-16T02:47:08.829Z,1005.54
2018-04-16T02:48:08.832Z,1005.59
2018-04-16T02:49:08.849Z,1005.55
2018-04-16T02:50:08.885Z,1005.57
2018-04-16T02:51:08.865Z,1005.62
2018-04-16T02:52:08.875Z,1005.65
2018-04-16T02:53:08.906Z,1005.67
2018-04-16T02:54:08.897Z,1005.70
2018-04-16T02:55:08.961Z,1005.75
2018-04-16T02:56:08.926Z,1005.78
2018-04-16T02:57:08.934Z,1005.83
2018-04-16T02:58:08.941Z,1005.82
2018-04-16T02:59:08.938Z,1005.83
2018-04-16T03:00:09.001Z,1005.86
2018-04-16T03:01:08.964Z,1005.87
2018-04-16T03:02:08.971Z,1005.84
2018-04-16T03:03:08.993Z,1005.83
2018-04-16T03:04:08.994Z,1005.89
2018-04-16T03:05:09.031Z,1005.90
2018-04-16T03:06:09.042Z,1005.89
2018-04-16T03:07:09.036Z,1005.92
2018-04-16T03:08:09.035Z,1005.88
2018-04-16T03:09:09.062Z,1005.90
2018-04-16T03:10:09.112Z,1005.88
2018-04-16T03:11:09.091Z,1005.87
2018-04-16T03:12:09.078Z,1005.93
2018-04-16T03:13:09.091Z,1005.94
2018-04-16T03:14:09.110Z,1005.91
2018-04-16T03:15:09.177Z,1005.93
2018-04-16T03:16:09.134Z,1005.85
2018-04-16T03:17:09.131Z,1005.84
2018-04-16T03:18:09.164Z,1005.86
2018-04-16T03:19:09.165Z,1005.80
2018-04-16T03:20:09.193Z,1005.81
2018-04-16T03:21:09.185Z,1005.83
2018-04-16T03:22:09.193Z,1005.85
2018-04-16T03:23:09.217Z,1005.85
2018-04-16T03:24:09.222Z,1005.82
2018-04-16T03:25:09.244Z,1005.82
2018-04-16T03:26:09.243Z,1005.84
2018-04-16T03:27:09.251Z,1005.85
2018-04-16T03:28:09.252Z,1005.88
2018-04-16T03:29:09.259Z,1005.88
2018-04-16T03:30:09.305Z,1005.90
2018-04-16T03:31:09.282Z,1005.92
2018-04-16T03:32:09.302Z,1005.90
2018-04-16T03:33:09.334Z,1005.92
2018-04-16T03:34:09.349Z,1005.97
2018-04-16T03:35:09.381Z,1005.97
2018-04-16T03:36:09.408Z,1005.96
2018-04-16T03:37:09.368Z,1005.94
2018-04-16T03:38:09.374Z,1005.95
2018-04-16T03:39:09.375Z,1005.99
2018-04-16T03:40:09.393Z,1005.98
2018-04-16T03:41:09.440Z,1005.94
2018-04-16T03:42:09.400Z,1005.96
2018-04-16T03:43:09.409Z,1005.89
2018-04-16T03:44:09.454Z,1005.88
2018-04-16T03:45:09.441Z,1005.87
2018-04-16T03:46:09.499Z,1005.89
2018-04-16T03:47:09.451Z,1005.89
2018-04-16T03:48:09.491Z,1005.94
2018-04-16T03:49:09.487Z,1005.93
2018-04-16T03:50:09.490Z,1005.96
2018-04-16T03:51:09.528Z,1005.92
2018-04-16T03:52:09.509Z,1005.94
2018-04-16T03:53:09.564Z,1005.96
2018-04-16T03:54:09.535Z,1005.95
2018-04-16T03:55:09.598Z,1005.95
2018-04-16T03:56:09.573Z,1005.88
2018-04-16T03:57:09.579Z,1005.83
2018-04-16T03:58:09.598Z,1005.87
2018-04-16T03:59:09.616Z,1005.85
2018-04-16T04:00:09.604Z,1005.88
2018-04-16T04:01:09.612Z,1005.90
2018-04-16T04:02:09.642Z,1005.92
2018-04-16T04:03:09.644Z,1005.92
2018-04-16T04:04:09.691Z,1005.90
2018-04-16T04:05:09.663Z,1005.92
2018-04-16T04:06:09.692Z,1005.90
2018-04-16T04:07:09.684Z,1005.90
2018-04-16T04:08:09.682Z,1005.89
2018-04-16T04:09:09.785Z,1005.84
2018-04-16T04:10:09.720Z,1005.84
2018-04-16T04:11:09.738Z,1005.83
2018-04-16T04:12:09.741Z,1005.77
2018-04-16T04:13:09.775Z,1005.81
2018-04-16T04:14:09.836Z,1005.79
2018-04-16T04:15:09.768Z,1005.84
2018-04-16T04:16:09.789Z,1005.82
2018-04-16T04:17:09.814Z,1005.81
2018-04-16T04:18:09.802Z,1005.83
2018-04-16T04:19:09.810Z,1005.86
2018-04-16T04:20:09.880Z,1005.86
2018-04-16T04:21:09.829Z,1005.88
2018-04-16T04:22:09.836Z,1005.96
2018-04-16T04:23:09.853Z,1005.90
2018-04-16T04:24:09.891Z,1006.00
2018-04-16T04:25:09.927Z,1006.08
2018-04-16T04:26:09.892Z,1006.06
2018-04-16T04:27:09.898Z,1006.09
2018-04-16T04:28:09.913Z,1006.03
2018-04-16T04:29:09.914Z,1006.05
2018-04-16T04:30:09.936Z,1006.06
2018-04-16T04:31:09.985Z,1006.06
2018-04-16T04:32:09.945Z,1006.09
2018-04-16T04:33:09.976Z,1006.09
2018-04-16T04:34:10.006Z,1006.10
2018-04-16T04:35:09.991Z,1006.11
2018-04-16T04:36:10.005Z,1006.09
2018-04-16T04:37:09.998Z,1006.15
2018-04-16T04:38:10.008Z,1006.18
2018-04-16T04:39:10.107Z,1006.14
2018-04-16T04:40:10.038Z,1006.15
2018-04-16T04:41:10.044Z,1006.20
2018-04-16T04:42:10.069Z,1006.22
2018-04-16T04:43:10.067Z,1006.22
2018-04-16T04:44:10.100Z,1006.24
2018-04-16T04:45:10.220Z,1006.25
2018-04-16T04:46:10.141Z,1006.22
2018-04-16T04:47:10.113Z,1006.17
2018-04-16T04:48:10.125Z,1006.17
2018-04-16T04:49:10.129Z,1006.20
2018-04-16T04:50:10.212Z,1006.18
2018-04-16T04:51:10.163Z,1006.23
2018-04-16T04:52:10.171Z,1006.24
2018-04-16T04:53:10.210Z,1006.28
2018-04-16T04:54:10.196Z,1006.30
2018-04-16T04:55:10.226Z,1006.29
2018-04-16T04:56:10.220Z,1006.30
2018-04-16T04:57:10.226Z,1006.26
2018-04-16T04:58:10.230Z,1006.25
2018-04-16T04:59:10.246Z,1006.30
2018-04-16T05:00:10.285Z,1006.27
2018-04-16T05:01:10.276Z,1006.29
2018-04-16T05:02:10.293Z,1006.31
2018-04-16T05:03:10.285Z,1006.33
2018-04-16T05:04:10.295Z,1006.37
2018-04-16T05:05:10.325Z,1006.38
2018-04-16T05:06:10.355Z,1006.36
2018-04-16T05:07:10.333Z,1006.44
2018-04-16T05:08:10.360Z,1006.48
2018-04-16T05:09:10.348Z,1006.52
2018-04-16T05:10:10.365Z,1006.54
2018-04-16T05:11:10.394Z,1006.53
2018-04-16T05:12:10.448Z,1006.57
2018-04-16T05:13:10.439Z,1006.57
2018-04-16T05:14:10.421Z,1006.55
2018-04-16T05:15:10.416Z,1006.59
2018-04-16T05:16:10.425Z,1006.60
2018-04-16T05:17:10.432Z,1006.64
2018-04-16T05:18:10.488Z,1006.66
2018-04-16T05:19:10.488Z,1006.65
2018-04-16T05:20:10.465Z,1006.66
2018-04-16T05:21:10.775Z,1006.68
2018-04-16T05:22:10.490Z,1006.65
2018-04-16T05:23:10.508Z,1006.69
2018-04-16T05:24:10.529Z,1006.71
2018-04-16T05:25:10.522Z,1006.69
2018-04-16T05:26:10.542Z,1006.73
2018-04-16T05:27:10.564Z,1006.73
2018-04-16T05:28:10.551Z,1006.73
2018-04-16T05:29:10.578Z,1006.76
2018-04-16T05:30:10.591Z,1006.81
2018-04-16T05:31:10.612Z,1006.84
2018-04-16T05:32:10.663Z,1006.85
2018-04-16T05:33:10.607Z,1006.87
2018-04-16T05:34:10.618Z,1006.89
2018-04-16T05:35:10.651Z,1006.85
2018-04-16T05:36:10.654Z,1006.89
2018-04-16T05:37:10.668Z,1006.90
2018-04-16T05:38:10.717Z,1006.94
2018-04-16T05:39:10.688Z,1006.97
2018-04-16T05:40:10.695Z,1007.00
2018-04-16T05:41:10.715Z,1007.03
2018-04-16T05:42:10.721Z,1007.02
2018-04-16T05:43:10.773Z,1007.05
2018-04-16T05:44:10.730Z,1007.06
2018-04-16T05:45:10.745Z,1007.08
2018-04-16T05:46:10.768Z,1007.08
2018-04-16T05:47:10.763Z,1007.09
2018-04-16T05:48:10.859Z,1007.11
2018-04-16T05:49:10.791Z,1007.13
2018-04-16T05:50:10.803Z,1007.17
2018-04-16T05:51:10.813Z,1007.19
2018-04-16T05:52:10.833Z,1007.22
2018-04-16T05:53:10.835Z,1007.24
2018-04-16T05:54:10.953Z,1007.22
2018-04-16T05:55:10.923Z,1007.26
2018-04-16T05:56:10.897Z,1007.29
2018-04-16T05:57:10.883Z,1007.31
2018-04-16T05:58:10.959Z,1007.32
2018-04-16T05:59:10.938Z,1007.32
2018-04-16T06:00:10.945Z,1007.36
2018-04-16T06:01:10.946Z,1007.37
2018-04-16T06:02:10.949Z,1007.38
2018-04-16T06:03:10.965Z,1007.41
2018-04-16T06:04:10.953Z,1007.45
2018-04-16T06:05:11.035Z,1007.44
2018-04-16T06:06:10.974Z,1007.48
2018-04-16T06:07:10.988Z,1007.50
2018-04-16T06:08:11.031Z,1007.53
2018-04-16T06:09:10.998Z,1007.52
2018-04-16T06:10:11.049Z,1007.50
2018-04-16T06:11:11.025Z,1007.53
2018-04-16T06:12:11.052Z,1007.51
2018-04-16T06:13:11.046Z,1007.55
2018-04-16T06:14:11.097Z,1007.58
2018-04-16T06:15:11.104Z,1007.57
2018-04-16T06:16:11.090Z,1007.58
2018-04-16T06:17:11.113Z,1007.59
2018-04-16T06:18:11.135Z,1007.65
2018-04-16T06:19:11.198Z,1007.66
2018-04-16T06:20:11.161Z,1007.72
2018-04-16T06:21:11.154Z,1007.70
2018-04-16T06:22:11.148Z,1007.72
2018-04-16T06:23:11.171Z,1007.75
2018-04-16T06:24:11.191Z,1007.75
2018-04-16T06:25:11.202Z,1007.78
2018-04-16T06:26:11.195Z,1007.81
2018-04-16T06:27:11.255Z,1007.79
2018-04-16T06:28:11.239Z,1007.81
2018-04-16T06:29:11.227Z,1007.82
2018-04-16T06:30:11.283Z,1007.85
2018-04-16T06:31:11.254Z,1007.86
2018-04-16T06:32:11.297Z,1007.88
2018-04-16T06:33:11.267Z,1007.90
2018-04-16T06:34:11.307Z,1007.90
2018-04-16T06:35:11.310Z,1007.90
2018-04-16T06:36:11.371Z,1007.91
2018-04-16T06:37:11.313Z,1007.89
2018-04-16T06:38:11.318Z,1007.91
2018-04-16T06:39:11.354Z,1007.95
2018-04-16T06:40:11.360Z,1007.94
2018-04-16T06:41:11.382Z,1007.97
2018-04-16T06:42:11.360Z,1007.96
2018-04-16T06:43:11.431Z,1007.93
2018-04-16T06:44:11.390Z,1007.93
2018-04-16T06:45:11.410Z,1007.94
2018-04-16T06:46:11.423Z,1007.95
2018-04-16T06:47:11.420Z,1007.97
2018-04-16T06:48:11.463Z,1007.97
2018-04-16T06:49:11.449Z,1008.00
2018-04-16T06:50:11.492Z,1007.97
2018-04-16T06:51:11.457Z,1007.96
2018-04-16T06:52:11.479Z,1007.98
2018-04-16T06:53:11.512Z,1008.01
2018-04-16T06:54:11.517Z,1007.96
2018-04-16T06:55:11.538Z,1007.96
2018-04-16T06:56:11.539Z,1007.97
2018-04-16T06:57:11.573Z,1007.98
2018-04-16T06:58:11.534Z,1007.94
2018-04-16T06:59:11.574Z,1007.93
2018-04-16T07:00:11.564Z,1007.98
2018-04-16T07:01:11.578Z,1007.98
2018-04-16T07:02:11.619Z,1007.98
2018-04-16T07:03:11.656Z,1007.99
2018-04-16T07:04:11.656Z,1007.98
2018-04-16T07:05:11.646Z,1008.03
2018-04-16T07:06:11.635Z,1008.05
2018-04-16T07:07:11.672Z,1008.05
2018-04-16T07:08:11.697Z,1008.02
2018-04-16T07:09:11.657Z,1008.09
2018-04-16T07:10:11.716Z,1008.07
2018-04-16T07:11:11.680Z,1008.06
2018-04-16T07:12:11.701Z,1008.07
2018-04-16T07:13:11.755Z,1008.06
2018-04-16T07:14:11.708Z,1008.03
2018-04-16T07:15:11.712Z,1008.11
2018-04-16T07:16:11.753Z,1008.08
2018-04-16T07:17:11.753Z,1008.10
2018-04-16T07:18:11.794Z,1008.09
2018-04-16T07:19:11.789Z,1008.14
2018-04-16T07:20:11.824Z,1008.11
2018-04-16T07:21:11.787Z,1008.10
2018-04-16T07:22:11.797Z,1008.16
2018-04-16T07:23:11.873Z,1008.15
2018-04-16T07:24:11.865Z,1008.21
2018-04-16T07:25:11.822Z,1008.17
2018-04-16T07:26:11.859Z,1008.22
2018-04-16T07:27:11.872Z,1008.21
2018-04-16T07:28:11.869Z,1008.26
2018-04-16T07:29:11.909Z,1008.22
2018-04-16T07:30:11.886Z,1008.21
2018-04-16T07:31:11.898Z,1008.23
2018-04-16T07:32:11.905Z,1008.26
2018-04-16T07:33:11.915Z,1008.24
2018-04-16T07:34:11.970Z,1008.25
2018-04-16T07:35:11.937Z,1008.23
2018-04-16T07:36:11.958Z,1008.27
2018-04-16T07:37:11.970Z,1008.27
2018-04-16T07:38:12.002Z,1008.30
2018-04-16T07:39:12.040Z,1008.26
2018-04-16T07:40:12.002Z,1008.28
2018-04-16T07:41:12.017Z,1008.29
2018-04-16T07:42:12.025Z,1008.29
2018-04-16T07:43:12.029Z,1008.32
2018-04-16T07:44:12.060Z,1008.32
2018-04-16T07:45:12.105Z,1008.36
2018-04-16T07:46:12.065Z,1008.35
2018-04-16T07:47:12.076Z,1008.34
2018-04-16T07:48:12.084Z,1008.36
2018-04-16T07:49:12.086Z,1008.39
2018-04-16T07:50:12.125Z,1008.37
2018-04-16T07:51:12.157Z,1008.41
2018-04-16T07:52:12.146Z,1008.39
2018-04-16T07:53:12.134Z,1008.42
2018-04-16T07:54:12.158Z,1008.45
2018-04-16T07:55:12.168Z,1008.46
2018-04-16T07:56:12.217Z,1008.47
2018-04-16T07:57:12.200Z,1008.47
2018-04-16T07:58:12.191Z,1008.50
2018-04-16T07:59:12.207Z,1008.53
2018-04-16T08:00:12.218Z,1008.55
2018-04-16T08:01:12.250Z,1008.57
2018-04-16T08:02:12.283Z,1008.58
2018-04-16T08:03:12.278Z,1008.61
2018-04-16T08:04:12.253Z,1008.59
2018-04-16T08:05:12.268Z,1008.62
2018-04-16T08:06:12.292Z,1008.63
2018-04-16T08:07:12.356Z,1008.64
2018-04-16T08:08:12.307Z,1008.65
2018-04-16T08:09:12.370Z,1008.68
2018-04-16T08:10:12.344Z,1008.66
2018-04-16T08:11:12.328Z,1008.67
2018-04-16T08:12:12.364Z,1008.69
2018-04-16T08:13:12.370Z,1008.69
2018-04-16T08:14:12.370Z,1008.67
2018-04-16T08:15:12.404Z,1008.71
2018-04-16T08:16:12.391Z,1008.71
2018-04-16T08:17:12.395Z,1008.71
2018-04-16T08:18:12.416Z,1008.73
2018-04-16T08:19:12.421Z,1008.72
2018-04-16T08:20:12.454Z,1008.71
2018-04-16T08:21:12.451Z,1008.76
2018-04-16T08:22:12.455Z,1008.73
2018-04-16T08:23:12.478Z,1008.76
2018-04-16T08:24:12.476Z,1008.78
2018-04-16T08:25:12.525Z,1008.76
2018-04-16T08:26:12.501Z,1008.76
2018-04-16T08:27:12.516Z,1008.76
2018-04-16T08:28:12.522Z,1008.73
2018-04-16T08:29:12.552Z,1008.76
2018-04-16T08:30:12.590Z,1008.76
2018-04-16T08:31:12.566Z,1008.74
2018-04-16T08:32:12.579Z,1008.75
2018-04-16T08:33:12.588Z,1008.75
2018-04-16T08:34:12.584Z,1008.72
2018-04-16T08:35:12.628Z,1008.73
2018-04-16T08:36:12.615Z,1008.72
2018-04-16T08:37:12.620Z,1008.73
2018-04-16T08:38:12.637Z,1008.72
2018-04-16T08:39:12.653Z,1008.69
2018-04-16T08:40:12.696Z,1008.73
2018-04-16T08:41:12.654Z,1008.76
2018-04-16T08:42:12.683Z,1008.73
2018-04-16T08:43:12.688Z,1008.69
2018-04-16T08:44:12.689Z,1008.73
2018-04-16T08:45:12.771Z,1008.73
2018-04-16T08:46:12.728Z,1008.73
2018-04-16T08:47:12.743Z,1008.72
2018-04-16T08:48:12.745Z,1008.75
2018-04-16T08:49:12.755Z,1008.73
2018-04-16T08:50:12.798Z,1008.71
2018-04-16T08:51:12.814Z,1008.73
2018-04-16T08:52:12.785Z,1008.70
2018-04-16T08:53:12.813Z,1008.75
2018-04-16T08:54:12.797Z,1008.74
2018-04-16T08:55:12.849Z,1008.70
2018-04-16T08:56:12.876Z,1008.70
2018-04-16T08:57:12.871Z,1008.69
2018-04-16T08:58:12.873Z,1008.72
2018-04-16T08:59:12.889Z,1008.68
2018-04-16T09:00:12.882Z,1008.65
2018-04-16T09:01:12.937Z,1008.65
2018-04-16T09:02:12.911Z,1008.64
2018-04-16T09:03:12.920Z,1008.68
2018-04-16T09:04:12.926Z,1008.68
2018-04-16T09:05:12.940Z,1008.68
2018-04-16T09:06:12.967Z,1008.67
2018-04-16T09:07:12.968Z,1008.68
2018-04-16T09:08:12.958Z,1008.70
2018-04-16T09:09:12.995Z,1008.67
2018-04-16T09:10:12.980Z,1008.63
2018-04-16T09:11:13.053Z,1008.63
2018-04-16T09:12:13.009Z,1008.63
2018-04-16T09:13:13.054Z,1008.63
2018-04-16T09:14:13.050Z,1008.60
2018-04-16T09:15:13.038Z,1008.61
2018-04-16T09:16:13.094Z,1008.58
2018-04-16T09:17:13.106Z,1008.53
2018-04-16T09:18:13.075Z,1008.55
2018-04-16T09:19:13.117Z,1008.57
2018-04-16T09:20:13.133Z,1008.54
2018-04-16T09:21:13.096Z,1008.52
2018-04-16T09:22:13.138Z,1008.50
2018-04-16T09:23:13.120Z,1008.52
2018-04-16T09:24:13.168Z,1008.53
2018-04-16T09:25:13.159Z,1008.52
2018-04-16T09:26:13.168Z,1008.53
2018-04-16T09:27:13.200Z,1008.54
2018-04-16T09:28:13.185Z,1008.56
2018-04-16T09:29:13.193Z,1008.56
2018-04-16T09:30:13.205Z,1008.59
2018-04-16T09:31:13.246Z,1008.51
2018-04-16T09:32:13.246Z,1008.51
2018-04-16T09:33:13.289Z,1008.52
2018-04-16T09:34:13.254Z,1008.47
2018-04-16T09:35:13.265Z,1008.46
2018-04-16T09:36:13.284Z,1008.43
2018-04-16T09:37:13.287Z,1008.41
2018-04-16T09:38:13.335Z,1008.40
2018-04-16T09:39:13.374Z,1008.43
2018-04-16T09:40:13.312Z,1008.43
2018-04-16T09:41:13.334Z,1008.43
2018-04-16T09:42:13.357Z,1008.45
2018-04-16T09:43:13.375Z,1008.40
2018-04-16T09:44:13.365Z,1008.38
2018-04-16T09:45:13.414Z,1008.39
2018-04-16T09:46:13.390Z,1008.41
2018-04-16T09:47:13.386Z,1008.38
2018-04-16T09:48:13.402Z,1008.38
2018-04-16T09:49:13.426Z,1008.42
2018-04-16T09:50:13.460Z,1008.37
2018-04-16T09:51:13.435Z,1008.36
2018-04-16T09:52:13.447Z,1008.35
2018-04-16T09:53:13.481Z,1008.37
2018-04-16T09:54:13.465Z,1008.40
2018-04-16T09:55:13.516Z,1008.33
2018-04-16T09:56:13.505Z,1008.40
2018-04-16T09:57:13.551Z,1008.36
2018-04-16T09:58:13.509Z,1008.40
2018-04-16T09:59:13.526Z,1008.41
2018-04-16T10:00:13.592Z,1008.44
2018-04-16T10:01:13.616Z,1008.42
2018-04-16T10:02:13.578Z,1008.41
2018-04-16T10:03:13.590Z,1008.44
2018-04-16T10:04:13.583Z,1008.46
2018-04-16T10:05:13.592Z,1008.46
2018-04-16T10:06:13.667Z,1008.47
2018-04-16T10:07:13.628Z,1008.48
2018-04-16T10:08:13.647Z,1008.48
2018-04-16T10:09:13.642Z,1008.46
2018-04-16T10:10:13.655Z,1008.46
2018-04-16T10:11:13.713Z,1008.51
2018-04-16T10:12:13.739Z,1008.52
2018-04-16T10:13:13.692Z,1008.49
2018-04-16T10:14:13.712Z,1008.55
2018-04-16T10:15:13.712Z,1008.52
2018-04-16T10:16:13.714Z,1008.52
2018-04-16T10:17:13.773Z,1008.54
2018-04-16T10:18:13.737Z,1008.53
2018-04-16T10:19:13.760Z,1008.51
2018-04-16T10:20:13.775Z,1008.51
2018-04-16T10:21:13.777Z,1008.55
2018-04-16T10:22:13.832Z,1008.53
2018-04-16T10:23:13.841Z,1008.56
2018-04-16T10:24:13.822Z,1008.55
2018-04-16T10:25:13.827Z,1008.55
2018-04-16T10:26:13.835Z,1008.52
2018-04-16T10:27:13.867Z,1008.51
2018-04-16T10:28:13.892Z,1008.49
2018-04-16T10:29:13.870Z,1008.50
2018-04-16T10:30:13.895Z,1008.50
2018-04-16T10:31:13.890Z,1008.53
2018-04-16T10:32:13.899Z,1008.52
2018-04-16T10:33:13.969Z,1008.49
2018-04-16T10:34:13.999Z,1008.54
2018-04-16T10:35:13.937Z,1008.48
2018-04-16T10:36:13.948Z,1008.50
2018-04-16T10:37:13.961Z,1008.52
2018-04-16T10:38:14.012Z,1008.54
2018-04-16T10:39:13.987Z,1008.51
2018-04-16T10:40:13.990Z,1008.46
2018-04-16T10:41:14.010Z,1008.50
2018-04-16T10:42:14.018Z,1008.48
2018-04-16T10:43:14.068Z,1008.51
2018-04-16T10:44:14.042Z,1008.52
2018-04-16T10:45:14.065Z,1008.48
2018-04-16T10:46:14.068Z,1008.52
2018-04-16T10:47:14.091Z,1008.49
2018-04-16T10:48:14.147Z,1008.50
2018-04-16T10:49:14.120Z,1008.48
2018-04-16T10:50:14.103Z,1008.48
2018-04-16T10:51:14.130Z,1008.45
2018-04-16T10:52:14.127Z,1008.45
2018-04-16T10:53:14.176Z,1008.46
2018-04-16T10:54:14.241Z,1008.48
2018-04-16T10:55:14.174Z,1008.44
2018-04-16T10:56:14.179Z,1008.46
2018-04-16T10:57:14.196Z,1008.51
2018-04-16T10:58:14.204Z,1008.49
2018-04-16T10:59:14.229Z,1008.45
2018-04-16T11:00:14.268Z,1008.47
2018-04-16T11:01:14.257Z,1008.46
2018-04-16T11:02:14.253Z,1008.48
2018-04-16T11:03:14.254Z,1008.49
2018-04-16T11:04:14.293Z,1008.54
2018-04-16T11:05:14.806Z,1008.49
2018-04-16T11:06:14.353Z,1008.50
2018-04-16T11:07:14.468Z,1008.50
2018-04-16T11:08:14.326Z,1008.50
2018-04-16T11:09:14.342Z,1008.49
2018-04-16T11:10:14.363Z,1008.55
2018-04-16T11:11:14.373Z,1008.50
2018-04-16T11:12:14.368Z,1008.43
2018-04-16T11:13:14.430Z,1008.44
2018-04-16T11:14:14.389Z,1008.48
2018-04-16T11:15:14.445Z,1008.38
2018-04-16T11:16:14.439Z,1008.38
2018-04-16T11:17:14.432Z,1008.42
2018-04-16T11:18:14.437Z,1008.38
2018-04-16T11:19:14.518Z,1008.40
2018-04-16T11:20:14.488Z,1008.41
2018-04-16T11:21:14.519Z,1008.44
2018-04-16T11:22:14.497Z,1008.40
2018-04-16T11:23:14.504Z,1008.37
2018-04-16T11:24:14.526Z,1008.42
2018-04-16T11:25:14.550Z,1008.42
2018-04-16T11:26:14.594Z,1008.43
2018-04-16T11:27:14.550Z,1008.39
2018-04-16T11:28:14.559Z,1008.39
2018-04-16T11:29:14.573Z,1008.44
2018-04-16T11:30:14.634Z,1008.46
2018-04-16T11:31:14.632Z,1008.48
2018-04-16T11:32:14.643Z,1008.50
2018-04-16T11:33:14.636Z,1008.46
2018-04-16T11:34:14.643Z,1008.50
2018-04-16T11:35:14.648Z,1008.49
2018-04-16T11:36:14.694Z,1008.51
2018-04-16T11:37:14.684Z,1008.56
2018-04-16T11:38:14.683Z,1008.55
2018-04-16T11:39:14.719Z,1008.55
2018-04-16T11:40:14.724Z,1008.55
2018-04-16T11:41:14.791Z,1008.53
2018-04-16T11:42:14.730Z,1008.48
2018-04-16T11:43:14.745Z,1008.44
2018-04-16T11:44:14.762Z,1008.49
2018-04-16T11:45:14.778Z,1008.49
2018-04-16T11:46:14.828Z,1008.48
2018-04-16T11:47:14.821Z,1008.48
2018-04-16T11:48:14.811Z,1008.49
2018-04-16T11:49:14.823Z,1008.51
2018-04-16T11:50:14.822Z,1008.55
2018-04-16T11:51:14.992Z,1008.52
2018-04-16T11:52:14.913Z,1008.55
2018-04-16T11:53:14.863Z,1008.55
2018-04-16T11:54:14.888Z,1008.53
2018-04-16T11:55:14.904Z,1008.55
2018-04-16T11:56:14.934Z,1008.52
2018-04-16T11:57:14.949Z,1008.56
2018-04-16T11:58:14.963Z,1008.54
2018-04-16T11:59:14.988Z,1008.57
2018-04-16T12:00:14.961Z,1008.53
2018-04-16T12:01:14.963Z,1008.55
2018-04-16T12:02:15.002Z,1008.55
2018-04-16T12:03:15.003Z,1008.58
2018-04-16T12:04:15.117Z,1008.58
2018-04-16T12:05:15.026Z,1008.56